createdAt,value
2019-04-30T00:02:06.474Z,72.58
2019-04-30T00:04:40.460Z,68.57
2019-04-30T00:07:15.473Z,72.22
2019-04-30T00:09:49.279Z,70.95
2019-04-30T00:12:20.531Z,68.62
2019-04-30T00:14:54.928Z,71.97
2019-04-30T00:17:28.223Z,76.65
2019-04-30T00:20:00.423Z,73.55
2019-04-30T00:22:34.315Z,79.62
2019-04-30T00:25:07.268Z,84.22
2019-04-30T00:27:39.109Z,80.47
2019-04-30T00:30:11.149Z,74.30
2019-04-30T00:32:45.599Z,73.90
2019-04-30T00:35:19.656Z,78.47
2019-04-30T00:37:51.995Z,73.28
2019-04-30T00:40:26.698Z,70.03
2019-04-30T00:43:00.129Z,72.58
2019-04-30T00:45:32.563Z,75.87
2019-04-30T00:48:05.990Z,73.40
2019-04-30T00:50:37.905Z,78.50
2019-04-30T00:53:12.352Z,71.70
2019-04-30T00:55:44.924Z,70.55
2019-04-30T00:58:24.832Z,81.65
2019-04-30T01:00:55.476Z,73.35
2019-04-30T01:03:29.000Z,69.65
2019-04-30T01:06:00.964Z,68.45
2019-04-30T01:08:33.153Z,77.87
2019-04-30T01:11:09.377Z,72.60
2019-04-30T01:13:45.631Z,76.70
2019-04-30T01:16:13.041Z,79.62
2019-04-30T01:18:44.809Z,76.00
2019-04-30T01:21:18.515Z,72.53
2019-04-30T01:23:54.532Z,84.20
2019-04-30T01:26:27.761Z,80.30
2019-04-30T01:29:02.044Z,82.37
2019-04-30T01:31:37.350Z,76.90
2019-04-30T01:34:12.346Z,83.52
2019-04-30T01:36:43.431Z,81.80
2019-04-30T01:39:14.958Z,85.28
2019-04-30T01:41:48.638Z,80.72
2019-04-30T01:44:20.067Z,93.40
2019-04-30T01:46:51.828Z,92.55
2019-04-30T01:49:25.743Z,87.72
2019-04-30T01:51:58.524Z,90.07
2019-04-30T01:54:31.083Z,90.42
2019-04-30T01:57:10.728Z,97.88
2019-04-30T02:00:00.650Z,89.85
2019-04-30T02:02:39.443Z,93.72
2019-04-30T02:05:12.199Z,87.85
2019-04-30T02:07:46.007Z,87.20
2019-04-30T02:10:18.594Z,85.55
2019-04-30T02:12:50.551Z,82.30
2019-04-30T02:15:23.232Z,86.05
2019-04-30T02:17:55.203Z,82.65
2019-04-30T02:20:28.696Z,82.92
2019-04-30T02:23:01.297Z,77.17
2019-04-30T02:25:33.025Z,82.35
2019-04-30T02:28:05.011Z,79.50
2019-04-30T02:30:36.880Z,77.65
2019-04-30T02:33:09.636Z,73.92
2019-04-30T02:35:43.371Z,75.70
2019-04-30T02:38:26.294Z,75.20
2019-04-30T02:40:59.480Z,71.25
2019-04-30T02:43:34.128Z,78.90
2019-04-30T02:48:39.835Z,85.75
2019-04-30T02:53:52.715Z,89.52
2019-04-30T02:56:27.029Z,88.52
2019-04-30T02:59:03.198Z,82.50
2019-04-30T03:01:32.904Z,85.42
2019-04-30T03:04:05.175Z,77.60
2019-04-30T03:06:36.733Z,70.75
2019-04-30T03:09:10.349Z,76.85
2019-04-30T03:11:42.596Z,77.65
2019-04-30T03:14:14.594Z,71.67
2019-04-30T03:16:52.722Z,70.92
2019-04-30T03:19:31.322Z,66.22
2019-04-30T03:22:05.029Z,69.97
2019-04-30T03:24:39.797Z,70.50
2019-04-30T03:27:10.068Z,71.87
2019-04-30T03:29:43.308Z,70.00
2019-04-30T03:32:15.052Z,68.80
2019-04-30T03:34:51.109Z,71.00
2019-04-30T03:37:20.161Z,73.95
2019-04-30T03:39:52.380Z,66.40
2019-04-30T03:42:24.557Z,62.10
2019-04-30T03:44:59.089Z,64.55
2019-04-30T03:47:30.309Z,64.12
2019-04-30T03:50:02.091Z,63.15
2019-04-30T03:52:34.162Z,65.03
2019-04-30T03:55:09.220Z,60.78
2019-04-30T03:57:41.038Z,61.40
2019-04-30T04:00:15.172Z,60.78
2019-04-30T04:05:20.624Z,57.50
2019-04-30T04:08:10.637Z,60.10
2019-04-30T04:10:52.597Z,55.88
2019-04-30T04:13:21.122Z,51.08
2019-04-30T04:15:52.879Z,50.73
2019-04-30T04:18:24.529Z,48.78
2019-04-30T04:21:08.740Z,43.30
2019-04-30T04:23:32.820Z,47.70
2019-04-30T04:26:03.482Z,42.80
2019-04-30T04:28:35.451Z,43.65
2019-04-30T04:31:09.562Z,43.30
2019-04-30T04:33:40.934Z,41.28
2019-04-30T04:36:13.020Z,37.67
2019-04-30T04:38:44.949Z,41.28
2019-04-30T04:41:16.620Z,39.65
2019-04-30T04:43:50.492Z,43.83
2019-04-30T04:46:23.008Z,42.38
2019-04-30T04:48:55.076Z,40.90
2019-04-30T04:51:36.712Z,43.42
2019-04-30T04:54:03.356Z,42.83
2019-04-30T04:56:33.836Z,42.38
2019-04-30T04:59:05.905Z,37.67
2019-04-30T05:01:38.751Z,36.85
2019-04-30T05:04:11.847Z,39.40
2019-04-30T05:06:43.751Z,33.63
2019-04-30T05:09:15.921Z,31.33
2019-04-30T05:11:48.717Z,35.90
2019-04-30T05:14:21.087Z,31.42
2019-04-30T05:16:52.830Z,31.33
2019-04-30T05:19:25.823Z,30.62
2019-04-30T05:21:59.682Z,35.53
2019-04-30T05:24:31.612Z,28.83
2019-04-30T05:27:03.692Z,24.77
2019-04-30T05:29:35.223Z,26.17
2019-04-30T05:32:09.150Z,23.40
2019-04-30T05:34:40.809Z,20.12
2019-04-30T05:37:12.775Z,18.02
2019-04-30T05:39:44.638Z,16.57
2019-04-30T05:42:16.445Z,18.80
2019-04-30T05:44:49.684Z,17.48
2019-04-30T05:47:21.543Z,18.15
2019-04-30T05:49:53.631Z,17.48
2019-04-30T05:52:25.597Z,18.30
2019-04-30T05:54:58.503Z,15.38
2019-04-30T05:57:30.971Z,17.07
2019-04-30T06:00:03.158Z,24.50
2019-04-30T06:02:35.315Z,18.57
2019-04-30T06:05:08.710Z,19.40
2019-04-30T06:07:40.755Z,13.93
2019-04-30T06:10:14.617Z,15.78
2019-04-30T06:12:49.333Z,16.70
2019-04-30T06:15:29.136Z,19.67
2019-04-30T06:18:10.736Z,15.78
2019-04-30T06:20:35.859Z,17.30
2019-04-30T06:23:09.123Z,16.95
2019-04-30T06:25:56.266Z,19.20
2019-04-30T06:28:15.326Z,16.07
2019-04-30T06:30:49.280Z,16.30
2019-04-30T06:33:21.533Z,16.70
2019-04-30T06:35:53.783Z,13.45
2019-04-30T06:38:25.873Z,16.70
2019-04-30T06:40:58.873Z,19.05
2019-04-30T06:43:31.343Z,15.60
2019-04-30T06:46:03.906Z,12.50
2019-04-30T06:48:36.711Z,14.80
2019-04-30T06:51:09.066Z,14.28
2019-04-30T06:53:41.027Z,14.87
2019-04-30T06:56:13.013Z,18.57
2019-04-30T06:58:45.184Z,15.53
2019-04-30T07:01:18.955Z,16.77
2019-04-30T07:03:50.747Z,12.55
2019-04-30T07:06:29.596Z,17.60
2019-04-30T07:09:00.708Z,13.88
2019-04-30T07:11:34.720Z,14.68
2019-04-30T07:14:06.915Z,21.65
2019-04-30T07:16:39.744Z,14.47
2019-04-30T07:19:11.662Z,14.35
2019-04-30T07:21:45.318Z,17.70
2019-04-30T07:24:20.800Z,11.75
2019-04-30T07:26:54.740Z,13.28
2019-04-30T07:29:25.068Z,13.68
2019-04-30T07:31:59.130Z,11.73
2019-04-30T07:34:36.544Z,15.03
2019-04-30T07:37:16.358Z,11.88
2019-04-30T07:39:39.065Z,15.68
2019-04-30T07:42:10.705Z,12.07
2019-04-30T07:44:42.682Z,13.22
2019-04-30T07:47:14.435Z,14.73
2019-04-30T07:49:52.128Z,12.23
2019-04-30T07:52:21.443Z,15.48
2019-04-30T07:54:53.008Z,12.07
2019-04-30T07:57:24.853Z,15.40
2019-04-30T07:59:56.678Z,14.10
2019-04-30T08:02:36.941Z,12.00
2019-04-30T08:05:15.291Z,11.35
2019-04-30T08:07:48.985Z,14.43
2019-04-30T08:10:20.161Z,13.58
2019-04-30T08:12:52.328Z,8.70
2019-04-30T08:15:24.405Z,11.40
2019-04-30T08:18:03.558Z,9.25
2019-04-30T08:20:29.683Z,15.45
2019-04-30T08:23:13.346Z,12.15
2019-04-30T08:25:35.253Z,7.72
2019-04-30T08:28:08.960Z,11.80
2019-04-30T08:30:41.919Z,8.78
2019-04-30T08:33:13.990Z,9.93
2019-04-30T08:35:47.386Z,8.73
2019-04-30T08:38:19.271Z,9.00
2019-04-30T08:40:57.668Z,13.65
2019-04-30T08:43:24.720Z,8.85
2019-04-30T08:45:56.293Z,11.50
2019-04-30T08:48:41.940Z,9.93
2019-04-30T08:51:01.645Z,9.20
2019-04-30T08:53:34.398Z,7.53
2019-04-30T08:56:06.307Z,7.30
2019-04-30T08:58:39.105Z,10.45
2019-04-30T09:01:10.953Z,9.40
2019-04-30T09:03:42.826Z,8.33
2019-04-30T09:06:16.176Z,7.62
2019-04-30T09:08:49.072Z,6.50
2019-04-30T09:11:27.292Z,11.33
2019-04-30T09:13:54.275Z,10.08
2019-04-30T09:16:26.349Z,5.90
2019-04-30T09:18:59.736Z,8.78
2019-04-30T09:21:31.380Z,7.65
2019-04-30T09:24:03.104Z,5.58
2019-04-30T09:26:34.921Z,6.33
2019-04-30T09:29:06.904Z,8.68
2019-04-30T09:31:40.961Z,7.08
2019-04-30T09:36:45.430Z,7.62
2019-04-30T09:39:19.502Z,5.75
2019-04-30T09:41:50.613Z,6.50
2019-04-30T09:44:22.475Z,9.95
2019-04-30T09:46:54.540Z,7.12
2019-04-30T09:49:26.299Z,10.18
2019-04-30T09:51:59.418Z,9.98
2019-04-30T09:54:31.882Z,8.43
2019-04-30T09:57:04.746Z,8.73
2019-04-30T09:59:36.603Z,8.03
2019-04-30T10:02:09.309Z,8.53
2019-04-30T10:04:41.409Z,9.48
2019-04-30T10:07:13.542Z,14.75
2019-04-30T10:09:45.205Z,11.30
2019-04-30T10:12:19.380Z,13.08
2019-04-30T10:17:25.995Z,11.75
2019-04-30T10:19:57.887Z,9.35
2019-04-30T10:22:29.826Z,8.88
2019-04-30T10:25:01.714Z,10.20
2019-04-30T10:27:34.380Z,7.65
2019-04-30T10:30:09.339Z,8.73
2019-04-30T10:32:40.989Z,12.58
2019-04-30T10:35:12.952Z,9.88
2019-04-30T10:37:44.898Z,9.45
2019-04-30T10:40:20.063Z,12.03
2019-04-30T10:42:50.188Z,10.08
2019-04-30T10:45:22.195Z,10.88
2019-04-30T10:47:53.897Z,11.00
2019-04-30T10:50:26.269Z,9.53
2019-04-30T10:52:59.119Z,12.45
2019-04-30T10:55:31.116Z,10.95
2019-04-30T10:58:03.002Z,10.43
2019-04-30T11:00:40.135Z,11.12
2019-04-30T11:03:20.016Z,12.40
2019-04-30T11:05:45.488Z,11.35
2019-04-30T11:08:17.416Z,11.93
2019-04-30T11:10:49.478Z,11.48
2019-04-30T11:13:21.230Z,10.35
2019-04-30T11:15:52.787Z,9.28
2019-04-30T11:18:25.059Z,12.37
2019-04-30T11:20:57.158Z,11.45
2019-04-30T11:23:29.758Z,15.43
2019-04-30T11:26:02.726Z,10.95
2019-04-30T11:28:35.042Z,11.10
2019-04-30T11:31:08.698Z,14.63
2019-04-30T11:33:40.671Z,15.88
2019-04-30T11:36:12.525Z,19.50
2019-04-30T11:38:44.373Z,18.87
2019-04-30T11:41:29.805Z,24.87
2019-04-30T11:43:50.055Z,35.95
2019-04-30T11:46:28.703Z,36.83
2019-04-30T11:49:00.520Z,41.85
2019-04-30T11:51:32.373Z,50.38
2019-04-30T11:54:04.663Z,56.68
2019-04-30T11:56:38.367Z,76.95
2019-04-30T11:59:09.640Z,73.57
2019-04-30T12:01:42.512Z,70.80
2019-04-30T12:04:14.186Z,78.22
2019-04-30T12:06:46.238Z,74.67
2019-04-30T12:09:35.941Z,73.97
2019-04-30T12:12:09.143Z,72.27
2019-04-30T12:14:40.901Z,74.50
2019-04-30T12:17:12.863Z,69.72
2019-04-30T12:19:44.931Z,71.15
2019-04-30T12:22:20.041Z,66.67
2019-04-30T12:25:02.269Z,72.35
2019-04-30T12:27:24.521Z,72.92
2019-04-30T12:29:56.257Z,68.65
2019-04-30T12:32:29.872Z,71.67
2019-04-30T12:35:01.644Z,79.45
2019-04-30T12:37:33.973Z,73.97
2019-04-30T12:40:10.856Z,81.08
2019-04-30T12:42:42.544Z,85.05
2019-04-30T12:45:14.740Z,86.17
2019-04-30T12:47:48.116Z,98.92
2019-04-30T12:50:29.204Z,89.52
2019-04-30T12:53:02.915Z,91.17
2019-04-30T12:55:42.463Z,83.47
2019-04-30T12:58:14.529Z,81.92
2019-04-30T13:00:46.394Z,75.12
2019-04-30T13:03:18.464Z,75.55
2019-04-30T13:05:51.241Z,71.90
2019-04-30T13:08:24.242Z,71.50
2019-04-30T13:10:56.863Z,83.47
2019-04-30T13:13:31.696Z,69.92
2019-04-30T13:16:02.285Z,71.97
2019-04-30T13:18:34.360Z,74.20
2019-04-30T13:21:06.219Z,70.42
2019-04-30T13:23:38.392Z,66.40
2019-04-30T13:26:10.137Z,63.05
2019-04-30T13:28:58.509Z,63.60
2019-04-30T13:31:30.266Z,64.40
2019-04-30T13:34:03.858Z,68.05
2019-04-30T13:36:35.714Z,64.90
2019-04-30T13:39:15.991Z,64.32
2019-04-30T13:42:15.831Z,61.10
2019-04-30T13:44:41.517Z,63.03
2019-04-30T13:47:13.296Z,68.05
2019-04-30T13:49:45.037Z,64.75
2019-04-30T13:52:16.822Z,62.80
2019-04-30T13:54:48.782Z,60.75
2019-04-30T13:57:20.538Z,60.60
2019-04-30T13:59:52.504Z,60.52
2019-04-30T14:02:24.316Z,59.42
2019-04-30T14:05:12.909Z,65.67
2019-04-30T14:08:02.500Z,65.50
2019-04-30T14:10:36.210Z,58.70
2019-04-30T14:13:08.382Z,54.30
2019-04-30T14:15:41.353Z,49.98
2019-04-30T14:18:13.649Z,54.20
2019-04-30T14:20:45.697Z,53.28
2019-04-30T14:23:18.629Z,55.88
2019-04-30T14:25:56.794Z,60.43
2019-04-30T14:28:23.773Z,63.30
2019-04-30T14:30:55.529Z,60.03
2019-04-30T14:33:29.388Z,57.90
2019-04-30T14:36:01.202Z,60.92
2019-04-30T14:38:33.170Z,66.65
2019-04-30T14:41:06.224Z,59.20
2019-04-30T14:43:42.311Z,58.45
2019-04-30T14:46:31.149Z,58.05
2019-04-30T14:49:14.771Z,52.20
2019-04-30T14:51:44.645Z,52.38
2019-04-30T14:54:21.116Z,56.98
2019-04-30T14:57:00.554Z,53.70
2019-04-30T14:59:50.630Z,49.03
2019-04-30T15:02:26.997Z,55.28
2019-04-30T15:04:58.865Z,55.03
2019-04-30T15:07:30.934Z,49.00
2019-04-30T15:10:05.205Z,54.73
2019-04-30T15:12:37.029Z,52.20
2019-04-30T15:15:09.383Z,48.68
2019-04-30T15:17:41.320Z,47.85
2019-04-30T15:20:13.216Z,50.40
2019-04-30T15:22:52.775Z,45.90
2019-04-30T15:25:24.639Z,44.95
2019-04-30T15:27:58.961Z,49.00
2019-04-30T15:30:30.722Z,45.23
2019-04-30T15:33:20.507Z,47.00
2019-04-30T15:35:52.458Z,53.23
2019-04-30T15:38:25.757Z,54.75
2019-04-30T15:40:57.738Z,49.38
2019-04-30T15:43:29.909Z,54.27
2019-04-30T15:46:01.673Z,51.00
2019-04-30T15:48:33.841Z,50.20
2019-04-30T15:51:05.708Z,59.20
2019-04-30T15:53:37.551Z,53.50
2019-04-30T15:56:09.210Z,51.68
2019-04-30T15:58:45.903Z,58.75
2019-04-30T16:01:19.239Z,56.08
2019-04-30T16:03:52.601Z,63.08
2019-04-30T16:06:24.470Z,54.75
2019-04-30T16:09:12.712Z,54.58
2019-04-30T16:11:46.511Z,61.25
2019-04-30T16:14:29.506Z,68.95
2019-04-30T16:17:05.715Z,66.80
2019-04-30T16:19:37.590Z,78.87
2019-04-30T16:22:09.338Z,74.12
2019-04-30T16:24:40.984Z,79.95
2019-04-30T16:27:13.174Z,75.87
2019-04-30T16:29:44.893Z,74.65
2019-04-30T16:32:16.902Z,80.80
2019-04-30T16:34:49.815Z,83.72
2019-04-30T16:37:21.632Z,87.47
2019-04-30T16:39:53.495Z,85.75
2019-04-30T16:42:25.278Z,87.50
2019-04-30T16:45:00.562Z,90.38
2019-04-30T16:47:30.642Z,92.05
2019-04-30T16:50:02.638Z,90.40
2019-04-30T16:52:34.679Z,103.75
2019-04-30T16:55:07.857Z,104.30
2019-04-30T16:57:40.041Z,119.10
2019-04-30T17:00:13.809Z,123.85
2019-04-30T17:02:46.929Z,119.82
2019-04-30T17:05:39.485Z,124.53
2019-04-30T17:08:15.670Z,115.10
2019-04-30T17:10:58.181Z,112.20
2019-04-30T17:13:31.783Z,110.95
2019-04-30T17:16:12.603Z,115.25
2019-04-30T17:18:44.307Z,110.63
2019-04-30T17:21:16.187Z,102.95
2019-04-30T17:23:50.593Z,106.17
2019-04-30T17:26:21.652Z,96.55
2019-04-30T17:28:56.381Z,100.55
2019-04-30T17:31:28.351Z,98.55
2019-04-30T17:34:00.091Z,107.43
2019-04-30T17:36:32.200Z,100.35
2019-04-30T17:39:05.376Z,98.47
2019-04-30T17:41:37.765Z,102.53
2019-04-30T17:44:09.408Z,100.00
2019-04-30T17:46:41.348Z,106.27
2019-04-30T17:49:13.462Z,93.40
2019-04-30T17:51:45.101Z,86.55
2019-04-30T17:54:18.395Z,92.97
2019-04-30T17:56:50.463Z,88.97
2019-04-30T17:59:22.185Z,111.65
2019-04-30T18:01:59.599Z,108.92
2019-04-30T18:04:31.790Z,101.67
2019-04-30T18:07:03.575Z,104.27
2019-04-30T18:09:35.519Z,134.03
2019-04-30T18:12:09.428Z,145.75
2019-04-30T18:14:41.292Z,116.90
2019-04-30T18:17:13.387Z,94.95
2019-04-30T18:19:49.790Z,88.78
2019-04-30T18:22:29.359Z,86.85
2019-04-30T18:25:10.463Z,85.07
2019-04-30T18:27:46.291Z,91.90
2019-04-30T18:30:21.121Z,107.55
2019-04-30T18:32:52.729Z,85.35
2019-04-30T18:35:24.470Z,84.67
2019-04-30T18:37:58.462Z,81.45
2019-04-30T18:40:29.818Z,78.47
2019-04-30T18:43:01.803Z,82.25
2019-04-30T18:45:33.673Z,78.83
2019-04-30T18:48:05.883Z,78.20
2019-04-30T18:50:38.098Z,75.80
2019-04-30T18:53:23.643Z,80.77
2019-04-30T18:55:55.868Z,78.72
2019-04-30T18:58:39.334Z,68.95
2019-04-30T19:01:00.809Z,69.00
2019-04-30T19:03:33.705Z,73.33
2019-04-30T19:06:09.859Z,76.87
2019-04-30T19:08:44.780Z,71.07
2019-04-30T19:11:32.702Z,71.25
2019-04-30T19:14:21.505Z,67.30
2019-04-30T19:16:59.523Z,68.25
2019-04-30T19:19:40.220Z,72.05
2019-04-30T19:22:11.858Z,72.78
2019-04-30T19:24:55.587Z,73.52
2019-04-30T19:27:18.635Z,71.40
2019-04-30T19:29:51.781Z,71.10
2019-04-30T19:32:23.419Z,70.62
2019-04-30T19:34:55.404Z,72.62
2019-04-30T19:37:27.209Z,68.37
2019-04-30T19:39:59.070Z,66.77
2019-04-30T19:42:30.944Z,73.42
2019-04-30T19:45:09.553Z,65.75
2019-04-30T19:47:36.206Z,63.00
2019-04-30T19:50:09.386Z,64.32
2019-04-30T19:52:41.246Z,67.15
2019-04-30T19:55:13.222Z,66.85
2019-04-30T19:57:45.050Z,68.70
2019-04-30T20:00:17.458Z,71.20
2019-04-30T20:02:49.089Z,70.22
2019-04-30T20:05:20.680Z,68.15
2019-04-30T20:07:52.445Z,66.37
2019-04-30T20:10:24.299Z,71.53
2019-04-30T20:12:58.652Z,72.95
2019-04-30T20:15:29.921Z,79.05
2019-04-30T20:18:03.265Z,74.58
2019-04-30T20:20:35.336Z,83.77
2019-04-30T20:23:07.000Z,82.62
2019-04-30T20:25:38.652Z,90.67
2019-04-30T20:28:12.205Z,88.15
2019-04-30T20:30:43.922Z,80.15
2019-04-30T20:33:15.976Z,76.77
2019-04-30T20:35:48.905Z,79.85
2019-04-30T20:38:34.449Z,76.87
2019-04-30T20:41:09.215Z,82.88
2019-04-30T20:43:40.877Z,77.80
2019-04-30T20:46:13.026Z,78.87
2019-04-30T20:48:49.158Z,79.07
2019-04-30T20:51:20.940Z,75.75
2019-04-30T20:53:52.579Z,91.63
2019-04-30T20:56:24.483Z,99.87
2019-04-30T20:59:01.173Z,95.35
2019-04-30T21:01:30.114Z,107.37
2019-04-30T21:04:02.004Z,112.68
2019-04-30T21:06:33.859Z,99.37
2019-04-30T21:09:06.759Z,103.97
2019-04-30T21:11:40.459Z,105.27
2019-04-30T21:14:12.648Z,106.35
2019-04-30T21:16:44.533Z,95.05
2019-04-30T21:19:16.567Z,108.20
2019-04-30T21:21:49.708Z,104.78
2019-04-30T21:24:21.611Z,113.75
2019-04-30T21:26:53.396Z,106.27
2019-04-30T21:29:25.029Z,86.85
2019-04-30T21:32:01.291Z,99.30
2019-04-30T21:34:39.371Z,92.62
2019-04-30T21:37:11.199Z,80.25
2019-04-30T21:39:43.112Z,77.45
2019-04-30T21:42:15.918Z,77.72
2019-04-30T21:44:47.824Z,86.70
2019-04-30T21:47:19.829Z,101.15
2019-04-30T21:49:51.795Z,111.03
2019-04-30T21:52:23.473Z,105.12
2019-04-30T21:54:56.770Z,113.33
2019-04-30T21:57:28.834Z,107.70
2019-04-30T22:00:00.494Z,98.05
2019-04-30T22:02:33.893Z,94.32
2019-04-30T22:05:07.011Z,88.82
2019-04-30T22:07:38.853Z,85.55
2019-04-30T22:10:11.288Z,74.80
2019-04-30T22:12:42.983Z,70.83
2019-04-30T22:15:14.921Z,64.50
2019-04-30T22:17:46.511Z,67.53
2019-04-30T22:20:19.076Z,67.70
2019-04-30T22:22:50.744Z,65.55
2019-04-30T22:25:22.611Z,60.83
2019-04-30T22:27:54.668Z,63.48
2019-04-30T22:30:27.425Z,65.83
2019-04-30T22:32:59.640Z,64.85
2019-04-30T22:35:33.193Z,62.83
2019-04-30T22:38:09.805Z,71.75
2019-04-30T22:40:41.442Z,63.42
2019-04-30T22:43:14.446Z,65.62
2019-04-30T22:45:51.128Z,68.12
2019-04-30T22:48:23.086Z,63.35
2019-04-30T22:50:54.948Z,65.97
2019-04-30T22:53:26.696Z,71.80
2019-04-30T22:55:58.329Z,70.05
2019-04-30T22:58:30.128Z,70.42
2019-04-30T23:01:12.870Z,68.12
2019-04-30T23:03:45.019Z,63.92
2019-04-30T23:06:16.883Z,64.85
2019-04-30T23:08:48.748Z,71.72
2019-04-30T23:11:20.910Z,72.15
2019-04-30T23:13:52.483Z,72.27
2019-04-30T23:16:24.443Z,72.78
2019-04-30T23:18:56.495Z,74.90
2019-04-30T23:21:28.171Z,77.92
2019-04-30T23:24:00.032Z,82.92
2019-04-30T23:26:32.085Z,83.45
2019-04-30T23:29:04.175Z,80.77
2019-04-30T23:31:37.344Z,79.22
2019-04-30T23:34:17.752Z,78.62
2019-04-30T23:36:42.916Z,84.40
2019-04-30T23:39:14.797Z,81.45
2019-04-30T23:41:46.764Z,87.72
2019-04-30T23:44:18.510Z,92.67
2019-04-30T23:46:50.591Z,90.95
2019-04-30T23:49:22.445Z,93.17
2019-04-30T23:51:54.529Z,85.83
2019-04-30T23:54:26.308Z,93.25
2019-04-30T23:56:58.151Z,96.87
2019-04-30T23:59:30.115Z,97.62
